Terminal Aerodrome Forecast
Issued by NWS

Home | Current Version | Previous Version | Graphics & Text | Print | Product List | Glossary On
Versions: 1 2 3 4 5 6 7 8 9 10 11 12 13 14 15 16 17
247
FTUS43 KABR 212335
TAFMBG
TAF
KMBG 212335Z 2200/2224 36014KT P6SM SCT200
     FM220500 05008KT P6SM SCT200
     FM221100 15006KT P6SM BKN110
     FM221400 26008KT P6SM BKN090
     FM221700 32014G24KT P6SM SCT200=

USA.gov is the U.S. government's official web portal to all federal, state and local government web resources and services.